Time;durP1;ratioP1;P1;durP2;ratioP2;P2;SDS_P1;SDS_P2;PMS_P1;PMS_P2;Temp;Humidity;BMP_temperature;BMP_pressure;BME280_temperature;BME280_humidity;BME280_pressure;Samples;Min_cycle;Max_cycle;Signal;HPM_P1;HPM_P2
2023/07/14 00:01:11;;;;;;;;;;;;;;;21.21;54.44;99952.50;10246219;28;867;-70
2023/07/14 00:06:07;;;;;;;;;;;;;;;21.21;54.20;99939.25;10245918;28;831;-71
2023/07/14 00:11:03;;;;;;;;;;;;;;;21.20;54.36;99942.00;10245173;28;1898;-71
2023/07/14 00:15:59;;;;;;;;;;;;;;;21.19;54.30;99943.78;10246263;28;806;-71
2023/07/14 00:20:56;;;;;;;;;;;;;;;21.18;54.27;99934.13;10245469;28;1160;-71
2023/07/14 00:25:52;;;;;;;;;;;;;;;21.18;54.48;99930.63;10244765;28;954;-71
2023/07/14 00:30:47;;;;;;;;;;;;;;;21.17;54.34;99929.78;10245173;28;1173;-70
2023/07/14 00:35:43;;;;;;;;;;;;;;;21.16;54.47;99928.06;10244930;28;1975;-71
2023/07/14 00:40:39;;;;;;;;;;;;;;;21.16;54.45;99919.25;10244863;28;878;-71
2023/07/14 00:45:35;;;;;;;;;;;;;;;21.14;54.29;99916.69;10245244;28;873;-71
2023/07/14 00:50:31;;;;;;;;;;;;;;;21.14;54.39;99907.88;10245172;28;866;-71
2023/07/14 00:55:27;;;;;;;;;;;;;;;21.14;54.30;99910.53;10243535;28;1898;-70
2023/07/14 01:00:23;;;;;;;;;;;;;;;21.13;54.46;99909.66;10244352;28;942;-70
2023/07/14 01:05:19;;;;;;;;;;;;;;;21.12;54.25;99900.00;10244661;28;1065;-71
2023/07/14 01:10:15;;;;;;;;;;;;;;;21.12;54.30;99899.16;10244669;28;908;-71
2023/07/14 01:15:11;;;;;;;;;;;;;;;21.10;54.47;99893.09;10243272;28;1889;-71
2023/07/14 01:20:10;;;;;;;;;;;;;;;21.10;54.39;99887.78;10244424;28;846;-71
2023/07/14 01:25:06;;;;;;;;;;;;;;;21.09;54.38;99873.69;10243723;28;1462;-71
2023/07/14 01:30:02;;;;;;;;;;;;;;;21.08;54.51;99882.56;10244107;28;769;-71
2023/07/14 01:34:57;;;;;;;;;;;;;;;21.08;54.38;99887.84;10243581;28;1910;-71
2023/07/14 01:39:54;;;;;;;;;;;;;;;21.07;54.26;99883.50;10244074;28;865;-71
2023/07/14 01:44:50;;;;;;;;;;;;;;;21.06;54.41;99884.44;10243359;28;895;-70
2023/07/14 01:49:45;;;;;;;;;;;;;;;21.05;54.33;99882.72;10243354;28;794;-70
2023/07/14 01:54:41;;;;;;;;;;;;;;;21.04;54.52;99881.03;10242440;28;1957;-71
2023/07/14 01:59:37;;;;;;;;;;;;;;;21.04;54.48;99878.38;10243757;28;879;-71
2023/07/14 02:04:33;;;;;;;;;;;;;;;21.03;54.46;99881.94;10243403;28;880;-71
2023/07/14 02:09:29;;;;;;;;;;;;;;;21.02;54.32;99874.97;10250491;28;923;-71
2023/07/14 02:14:25;;;;;;;;;;;;;;;21.01;54.36;99873.22;10250220;28;1902;-71
2023/07/14 02:19:21;;;;;;;;;;;;;;;21.00;54.55;99868.88;10250032;28;1077;-70
2023/07/14 02:24:17;;;;;;;;;;;;;;;21.00;54.46;99871.53;10250626;28;1133;-71
2023/07/14 02:29:12;;;;;;;;;;;;;;;20.98;54.54;99874.25;10249156;28;842;-71
2023/07/14 02:34:08;;;;;;;;;;;;;;;20.98;54.43;99879.53;10249556;28;1965;-71
2023/07/14 02:39:04;;;;;;;;;;;;;;;20.97;54.44;99879.66;10250757;28;849;-71
2023/07/14 02:44:00;;;;;;;;;;;;;;;20.96;54.55;99872.66;10249395;28;923;-71
2023/07/14 02:48:56;;;;;;;;;;;;;;;20.95;54.35;99869.13;10250077;28;790;-71
2023/07/14 02:53:52;;;;;;;;;;;;;;;20.95;54.43;99876.22;10248500;28;1960;-70
2023/07/14 02:58:49;;;;;;;;;;;;;;;20.94;54.43;99874.53;10248667;28;871;-71
2023/07/14 03:03:45;;;;;;;;;;;;;;;20.95;54.47;99873.56;10248445;28;958;-71
2023/07/14 03:08:41;;;;;;;;;;;;;;;20.93;54.55;99868.38;10248952;28;772;-71
2023/07/14 03:13:37;;;;;;;;;;;;;;;20.92;54.41;99860.50;10247654;28;1926;-71
2023/07/14 03:18:33;;;;;;;;;;;;;;;20.91;54.42;99864.09;10247409;28;882;-71
2023/07/14 03:23:29;;;;;;;;;;;;;;;20.90;54.52;99855.25;10247539;28;1373;-70
2023/07/14 03:28:25;;;;;;;;;;;;;;;20.88;54.37;99857.16;10247484;28;849;-70
2023/07/14 03:33:21;;;;;;;;;;;;;;;20.88;54.45;99853.63;10247274;28;1983;-70
2023/07/14 03:38:17;;;;;;;;;;;;;;;20.86;54.61;99847.59;10247199;28;790;-70
2023/07/14 03:43:13;;;;;;;;;;;;;;;20.86;54.43;99842.28;10246956;28;811;-71
2023/07/14 03:48:09;;;;;;;;;;;;;;;20.86;54.49;99844.94;10247184;28;782;-71
2023/07/14 03:53:05;;;;;;;;;;;;;;;20.85;54.60;99840.56;10246948;28;1886;-70
2023/07/14 03:58:00;;;;;;;;;;;;;;;20.83;54.54;99834.47;10246979;28;940;-71
2023/07/14 04:02:56;;;;;;;;;;;;;;;20.83;54.56;99842.44;10245605;28;896;-71
2023/07/14 04:07:52;;;;;;;;;;;;;;;20.82;54.66;99838.09;10246039;28;923;-71
2023/07/14 04:12:48;;;;;;;;;;;;;;;20.81;54.60;99839.03;10246368;28;1953;-67
2023/07/14 04:17:44;;;;;;;;;;;;;;;20.79;54.63;99839.09;10245893;28;764;-71
2023/07/14 04:22:41;;;;;;;;;;;;;;;20.79;54.66;99853.19;10245626;28;1130;-70
2023/07/14 04:27:37;;;;;;;;;;;;;;;20.78;54.74;99848.84;10245060;28;962;-67
2023/07/14 04:32:33;;;;;;;;;;;;;;;20.79;54.71;99845.25;10245597;28;1973;-68
2023/07/14 04:37:29;;;;;;;;;;;;;;;20.79;54.88;99845.25;10244962;28;782;-68
2023/07/14 04:42:25;;;;;;;;;;;;;;;20.78;54.91;99843.56;10244156;28;850;-67
2023/07/14 04:47:20;;;;;;;;;;;;;;;20.77;54.80;99838.31;10244719;28;865;-67
2023/07/14 04:52:17;;;;;;;;;;;;;;;20.76;54.94;99833.97;10243744;28;1893;-66
2023/07/14 04:57:13;;;;;;;;;;;;;;;20.77;55.00;99840.97;10244403;28;814;-67
2023/07/14 05:02:08;;;;;;;;;;;;;;;20.78;55.02;99840.06;10244229;28;775;-67
2023/07/14 05:07:04;;;;;;;;;;;;;;;20.77;55.04;99847.13;10244044;28;834;-67
2023/07/14 05:12:00;;;;;;;;;;;;;;;20.76;55.06;99837.47;10243925;28;1940;-67
2023/07/14 05:16:56;;;;;;;;;;;;;;;20.76;54.96;99833.97;10244483;28;933;-67
2023/07/14 05:21:52;;;;;;;;;;;;;;;20.75;54.84;99834.91;10244201;28;1345;-67
2023/07/14 05:26:48;;;;;;;;;;;;;;;20.74;55.11;99827.91;10244439;28;885;-67
2023/07/14 05:31:44;;;;;;;;;;;;;;;20.73;55.12;99832.34;10243597;28;1910;-67
2023/07/14 05:36:40;;;;;;;;;;;;;;;20.73;55.03;99824.41;10244165;28;814;-67
2023/07/14 05:41:36;;;;;;;;;;;;;;;20.73;55.04;99824.41;10247802;28;861;-68
2023/07/14 05:46:31;;;;;;;;;;;;;;;20.74;55.13;99831.41;10250809;28;842;-67
2023/07/14 05:51:27;;;;;;;;;;;;;;;20.76;55.19;99832.19;10251577;28;1895;-67
2023/07/14 05:56:23;;;;;;;;;;;;;;;20.76;55.20;99826.88;10250440;28;992;-67
2023/07/14 06:01:19;;;;;;;;;;;;;;;20.76;55.33;99824.22;10250796;28;867;-68
2023/07/14 06:06:15;;;;;;;;;;;;;;;20.75;55.36;99833.13;10250743;28;771;-67
2023/07/14 06:11:11;;;;;;;;;;;;;;;20.77;55.55;99827.72;10250382;28;1953;-67
2023/07/14 06:16:07;;;;;;;;;;;;;;;20.75;55.46;99819.88;10250865;28;921;-70
2023/07/14 06:21:03;;;;;;;;;;;;;;;20.73;55.45;99808.50;10250436;28;1533;-66
2023/07/14 06:25:59;;;;;;;;;;;;;;;20.72;55.37;99811.22;10249383;28;834;-66
2023/07/14 06:30:56;;;;;;;;;;;;;;;20.71;55.38;99804.25;10249912;28;854;-66
2023/07/14 06:35:52;;;;;;;;;;;;;;;20.71;55.55;99804.25;10249585;28;1914;-65
2023/07/14 06:40:48;;;;;;;;;;;;;;;20.70;55.37;99810.47;10249952;28;834;-65
2023/07/14 06:45:44;;;;;;;;;;;;;;;20.72;55.47;99804.16;10248572;28;937;-67
2023/07/14 06:50:40;;;;;;;;;;;;;;;20.74;55.61;99801.41;10249124;28;944;-67
2023/07/14 06:55:36;;;;;;;;;;;;;;;20.74;55.51;99796.97;10248776;28;1969;-68
2023/07/14 07:00:32;;;;;;;;;;;;;;;20.75;55.54;99792.50;10249293;28;886;-67
2023/07/14 07:05:28;;;;;;;;;;;;;;;20.76;55.62;99791.59;10247907;28;822;-67
2023/07/14 07:10:24;;;;;;;;;;;;;;;20.75;55.66;99785.44;10248412;28;858;-67
2023/07/14 07:15:19;;;;;;;;;;;;;;;20.76;55.69;99779.19;10248044;28;1910;-67
2023/07/14 07:20:15;;;;;;;;;;;;;;;20.75;55.61;99780.16;10248518;28;922;-67
2023/07/14 07:25:11;;;;;;;;;;;;;;;20.75;55.48;99774.84;10248812;28;1451;-68
2023/07/14 07:30:09;;;;;;;;;;;;;;;20.77;55.64;99782.69;10247829;28;885;-68
2023/07/14 07:35:04;;;;;;;;;;;;;;;20.77;55.74;99775.59;10247320;28;1977;-68
2023/07/14 07:40:00;;;;;;;;;;;;;;;20.76;55.66;99776.56;10247155;28;763;-67
2023/07/14 07:44:56;;;;;;;;;;;;;;;20.78;55.72;99771.19;10247568;28;869;-67
2023/07/14 07:49:52;;;;;;;;;;;;;;;20.78;55.61;99774.69;10246829;28;747;-67
2023/07/14 07:54:48;;;;;;;;;;;;;;;20.78;55.69;99760.59;10246610;28;1902;-68
2023/07/14 07:59:44;;;;;;;;;;;;;;;20.78;55.60;99755.28;10246970;28;849;-68
2023/07/14 08:04:40;;;;;;;;;;;;;;;20.76;55.57;99751.88;10246336;28;861;-67
2023/07/14 08:09:36;;;;;;;;;;;;;;;20.76;55.62;99744.75;10246041;28;941;-67
2023/07/14 08:14:32;;;;;;;;;;;;;;;20.79;55.61;99744.59;10245802;28;1906;-67
2023/07/14 08:19:28;;;;;;;;;;;;;;;20.78;55.47;99744.69;10245161;28;1712;-67
2023/07/14 08:24:24;;;;;;;;;;;;;;;20.78;55.57;99753.50;10244459;28;1513;-68
2023/07/14 08:29:19;;;;;;;;;;;;;;;20.78;55.37;99748.19;10246002;28;846;-67
2023/07/14 08:34:15;;;;;;;;;;;;;;;20.80;55.23;99737.50;10245038;28;1914;-67
2023/07/14 08:39:11;;;;;;;;;;;;;;;20.82;55.25;99738.25;10244429;28;925;-67
2023/07/14 08:44:08;;;;;;;;;;;;;;;20.82;55.26;99734.75;10244938;28;863;-68
2023/07/14 08:49:04;;;;;;;;;;;;;;;20.82;55.16;99732.97;10245281;28;822;-68
2023/07/14 08:54:00;;;;;;;;;;;;;;;20.84;55.16;99725.78;10244491;28;1894;-68
2023/07/14 08:58:55;;;;;;;;;;;;;;;20.84;54.95;99728.44;10244986;28;798;-67
2023/07/14 09:03:51;;;;;;;;;;;;;;;20.83;54.91;99725.88;10244337;28;905;-68
2023/07/14 09:08:47;;;;;;;;;;;;;;;20.83;54.53;99718.81;10244084;28;925;-67
2023/07/14 09:13:43;;;;;;;;;;;;;;;20.83;54.17;99718.81;10243433;28;1965;-67
2023/07/14 09:18:39;;;;;;;;;;;;;;;20.83;54.34;99717.91;10242832;28;906;-67
2023/07/14 09:23:35;;;;;;;;;;;;;;;20.81;54.57;99709.22;10244641;28;1458;-67
2023/07/14 09:28:31;;;;;;;;;;;;;;;20.89;53.45;99707.00;10243775;28;731;-67
2023/07/14 09:33:28;;;;;;;;;;;;;;;20.89;54.32;99710.50;10243663;28;1981;-67
2023/07/14 09:38:24;;;;;;;;;;;;;;;20.90;53.93;99706.03;10244245;28;795;-67
2023/07/14 09:43:20;;;;;;;;;;;;;;;20.85;54.43;99705.44;10243491;28;861;-67
2023/07/14 09:48:15;;;;;;;;;;;;;;;20.87;53.85;99688.53;10243454;28;851;-67
2023/07/14 09:53:11;;;;;;;;;;;;;;;20.89;54.06;99691.09;10244514;28;1968;-68
2023/07/14 09:58:13;;;;;;;;;;;;;;;20.88;54.01;99698.19;10225565;28;770;-68
2023/07/14 10:03:09;;;;;;;;;;;;;;;20.90;53.97;99679.53;10243192;28;844;-68
2023/07/14 10:08:05;;;;;;;;;;;;;;;20.91;54.17;99683.94;10243753;28;863;-68
2023/07/14 10:13:01;;;;;;;;;;;;;;;20.89;54.26;99677.84;10242921;28;1894;-68
2023/07/14 10:17:57;;;;;;;;;;;;;;;20.86;54.43;99672.72;10243682;28;888;-68
2023/07/14 10:22:53;;;;;;;;;;;;;;;20.86;54.44;99670.94;10243391;28;1456;-67
2023/07/14 10:27:49;;;;;;;;;;;;;;;20.86;54.40;99660.34;10246397;28;883;-67
2023/07/14 10:32:44;;;;;;;;;;;;;;;20.87;54.39;99645.28;10250299;28;2005;-68
2023/07/14 10:37:40;;;;;;;;;;;;;;;20.85;54.45;99648.00;10248993;28;1192;-67
2023/07/14 10:42:36;;;;;;;;;;;;;;;20.87;54.22;99638.19;10250054;28;873;-68
2023/07/14 10:47:33;;;;;;;;;;;;;;;20.85;54.26;99634.75;10249237;28;861;-68
2023/07/14 10:52:29;;;;;;;;;;;;;;;20.85;54.17;99633.91;10248947;28;1894;-67
2023/07/14 10:57:25;;;;;;;;;;;;;;;20.86;54.27;99623.25;10249434;28;802;-68
2023/07/14 11:02:21;;;;;;;;;;;;;;;20.86;54.28;99620.59;10248085;28;932;-67
2023/07/14 11:07:17;;;;;;;;;;;;;;;20.84;54.29;99611.88;10248980;28;826;-67
2023/07/14 11:12:13;;;;;;;;;;;;;;;20.85;54.08;99607.44;10248319;28;1959;-68
2023/07/14 11:17:09;;;;;;;;;;;;;;;20.87;54.25;99608.19;10247967;28;977;-67
2023/07/14 11:22:05;;;;;;;;;;;;;;;20.88;54.17;99588.69;10247812;28;1342;-67
2023/07/14 11:27:01;;;;;;;;;;;;;;;20.90;54.14;99597.41;10248830;28;877;-64
2023/07/14 11:31:56;;;;;;;;;;;;;;;20.88;54.12;99589.56;10248111;28;1910;-65
2023/07/14 11:36:52;;;;;;;;;;;;;;;20.89;53.69;99578.03;10247002;28;929;-64
2023/07/14 11:41:48;;;;;;;;;;;;;;;20.91;53.51;99581.44;10246111;28;772;-67
2023/07/14 11:46:44;;;;;;;;;;;;;;;20.89;53.49;99571.88;10246930;28;776;-67
2023/07/14 11:51:40;;;;;;;;;;;;;;;20.94;53.38;99568.00;10248255;28;1906;-68
2023/07/14 11:56:36;;;;;;;;;;;;;;;20.95;53.50;99558.25;10247253;28;891;-67
2023/07/14 12:01:32;;;;;;;;;;;;;;;20.95;53.56;99556.44;10247028;28;869;-67
2023/07/14 12:06:28;;;;;;;;;;;;;;;20.98;53.79;99560.72;10245660;28;865;-67
2023/07/14 12:11:24;;;;;;;;;;;;;;;20.95;53.87;99559.09;10245891;28;1963;-68
2023/07/14 12:16:20;;;;;;;;;;;;;;;20.94;54.14;99548.63;10246042;28;778;-68
2023/07/14 12:21:16;;;;;;;;;;;;;;;20.98;54.16;99536.88;10243863;28;1412;-68
2023/07/14 12:26:12;;;;;;;;;;;;;;;20.96;54.38;99534.34;10245382;28;806;-67
2023/07/14 12:31:08;;;;;;;;;;;;;;;20.99;54.34;99514.75;10245593;28;926;-68
2023/07/14 12:36:03;;;;;;;;;;;;;;;21.04;54.19;99506.50;10244744;28;1910;-68
2023/07/14 12:40:59;;;;;;;;;;;;;;;21.05;54.23;99498.47;10245230;28;1000;-67
2023/07/14 12:45:56;;;;;;;;;;;;;;;21.04;54.15;99478.22;10245177;28;1093;-67
2023/07/14 12:50:53;;;;;;;;;;;;;;;21.05;54.27;99479.91;10244635;28;928;-68
2023/07/14 12:55:49;;;;;;;;;;;;;;;21.04;54.20;99464.97;10245013;28;1976;-68
2023/07/14 13:00:45;;;;;;;;;;;;;;;21.00;54.22;99458.16;10244232;28;874;-68
2023/07/14 13:05:48;;;;;;;;;;;;;;;20.91;54.72;99446.31;10243987;28;872;-68
2023/07/14 13:10:44;;;;;;;;;;;;;;;20.90;54.98;99449.06;10244504;28;958;-68
2023/07/14 13:15:39;;;;;;;;;;;;;;;20.87;54.91;99430.69;10244296;28;1890;-68
2023/07/14 13:20:35;;;;;;;;;;;;;;;20.87;55.02;99438.66;10243513;28;1013;-68
2023/07/14 13:25:31;;;;;;;;;;;;;;;20.86;55.18;99416.59;10244271;28;810;-67
2023/07/14 13:30:31;;;;;;;;;;;;;;;20.86;55.12;99411.31;10244726;28;858;-67
2023/07/14 13:35:27;;;;;;;;;;;;;;;20.86;55.12;99403.38;10243429;28;1973;-67
2023/07/14 13:40:26;;;;;;;;;;;;;;;20.87;55.36;99396.25;10243872;28;770;-68
2023/07/14 13:45:23;;;;;;;;;;;;;;;20.87;55.45;99385.66;10243255;28;878;-68
2023/07/14 13:50:18;;;;;;;;;;;;;;;20.86;55.35;99376.03;10243196;28;800;-67
2023/07/14 13:55:14;;;;;;;;;;;;;;;20.86;55.50;99362.78;10243059;28;1903;-68
2023/07/14 14:00:11;;;;;;;;;;;;;;;20.87;55.35;99367.97;10243687;28;791;-68
2023/07/14 14:05:06;;;;;;;;;;;;;;;20.87;55.46;99353.88;10250633;28;770;-68
2023/07/14 14:10:02;;;;;;;;;;;;;;;20.88;55.52;99343.19;10250736;28;952;-68
2023/07/14 14:14:58;;;;;;;;;;;;;;;20.89;55.51;99352.84;10250258;28;1894;-67
2023/07/14 14:19:54;;;;;;;;;;;;;;;20.89;55.63;99341.38;10250952;28;837;-66
2023/07/14 14:24:50;;;;;;;;;;;;;;;20.90;55.66;99345.72;10250839;28;1422;-68
2023/07/14 14:29:46;;;;;;;;;;;;;;;20.90;55.51;99343.94;10250587;28;845;-67
2023/07/14 14:34:42;;;;;;;;;;;;;;;20.91;55.46;99343.00;10249745;28;1914;-66
2023/07/14 14:39:38;;;;;;;;;;;;;;;20.89;55.43;99323.69;10249648;28;783;-67
2023/07/14 14:44:34;;;;;;;;;;;;;;;20.90;55.12;99319.25;10249978;28;912;-68
2023/07/14 14:49:31;;;;;;;;;;;;;;;20.91;55.50;99313.00;10249265;28;980;-67
2023/07/14 14:54:26;;;;;;;;;;;;;;;20.91;55.36;99308.56;10248402;28;1951;-67
2023/07/14 14:59:22;;;;;;;;;;;;;;;20.92;55.36;99297.00;10248862;28;936;-68
2023/07/14 15:04:18;;;;;;;;;;;;;;;20.93;55.42;99300.50;10248722;28;777;-68
2023/07/14 15:09:14;;;;;;;;;;;;;;;20.93;55.22;99281.94;10249074;28;778;-67
2023/07/14 15:14:10;;;;;;;;;;;;;;;20.95;55.22;99277.41;10247620;28;1886;-67
2023/07/14 15:19:06;;;;;;;;;;;;;;;20.96;55.35;99256.13;10248670;28;961;-68
2023/07/14 15:24:02;;;;;;;;;;;;;;;20.99;55.98;99258.56;10249021;28;1169;-68
2023/07/14 15:28:58;;;;;;;;;;;;;;;21.02;56.48;99253.06;10248369;28;797;-68
2023/07/14 15:33:54;;;;;;;;;;;;;;;21.07;56.66;99251.94;10248134;28;1967;-67
2023/07/14 15:38:51;;;;;;;;;;;;;;;21.06;56.72;99251.06;10247403;28;934;-67
2023/07/14 15:43:49;;;;;;;;;;;;;;;21.08;56.72;99235.91;10247104;28;891;-67
2023/07/14 15:48:45;;;;;;;;;;;;;;;21.08;56.86;99224.47;10247593;28;902;-68
2023/07/14 15:53:41;;;;;;;;;;;;;;;21.07;56.71;99220.97;10247356;28;1898;-67
2023/07/14 15:58:37;;;;;;;;;;;;;;;21.06;56.70;99203.38;10246615;28;949;-68
2023/07/14 16:03:32;;;;;;;;;;;;;;;21.08;56.41;99195.31;10246943;28;940;-68
2023/07/14 16:08:28;;;;;;;;;;;;;;;21.09;56.28;99183.75;10245573;28;1067;-68
2023/07/14 16:13:26;;;;;;;;;;;;;;;21.08;56.32;99174.97;10246609;28;1902;-68
2023/07/14 16:18:22;;;;;;;;;;;;;;;21.09;56.35;99162.56;10245746;28;969;-67
2023/07/14 16:23:17;;;;;;;;;;;;;;;21.09;56.11;99158.16;10245005;28;1307;-67
2023/07/14 16:28:13;;;;;;;;;;;;;;;21.09;56.03;99147.53;10245413;28;863;-67
2023/07/14 16:33:09;;;;;;;;;;;;;;;21.10;56.14;99151.03;10246258;28;1960;-67
2023/07/14 16:38:06;;;;;;;;;;;;;;;21.08;55.99;99148.47;10245716;28;934;-67
2023/07/14 16:43:02;;;;;;;;;;;;;;;21.09;55.93;99141.38;10245514;28;861;-68
2023/07/14 16:47:58;;;;;;;;;;;;;;;21.08;55.97;99135.22;10245459;28;858;-68
2023/07/14 16:52:55;;;;;;;;;;;;;;;21.08;55.94;99135.22;10244691;28;1950;-68
2023/07/14 16:57:51;;;;;;;;;;;;;;;21.07;56.05;99136.19;10244635;28;794;-68
2023/07/14 17:02:47;;;;;;;;;;;;;;;21.08;56.00;99119.31;10243850;28;837;-67
2023/07/14 17:07:43;;;;;;;;;;;;;;;21.08;55.87;99115.84;10244144;28;930;-67
2023/07/14 17:12:39;;;;;;;;;;;;;;;21.09;55.88;99098.97;10244129;28;1957;-67
2023/07/14 17:17:37;;;;;;;;;;;;;;;21.08;55.96;99095.47;10244097;28;837;-67
2023/07/14 17:22:33;;;;;;;;;;;;;;;21.08;55.91;99087.53;10243944;28;1148;-68
2023/07/14 17:27:29;;;;;;;;;;;;;;;21.09;55.92;99075.13;10243353;28;1062;-68
2023/07/14 17:32:27;;;;;;;;;;;;;;;21.08;55.68;99071.63;10243142;28;1907;-67
2023/07/14 17:37:23;;;;;;;;;;;;;;;21.09;55.96;99070.69;10247135;28;794;-68
2023/07/14 17:42:19;;;;;;;;;;;;;;;21.10;55.83;99067.09;10252371;28;875;-68
2023/07/14 17:47:18;;;;;;;;;;;;;;;21.10;55.77;99053.00;10252752;28;902;-67
2023/07/14 17:52:14;;;;;;;;;;;;;;;21.12;55.86;99051.09;10251979;28;1965;-68
2023/07/14 17:57:10;;;;;;;;;;;;;;;21.11;55.85;99054.66;10251159;28;982;-67
2023/07/14 18:02:06;;;;;;;;;;;;;;;21.12;55.88;99041.34;10251013;28;806;-68
2023/07/14 18:07:02;;;;;;;;;;;;;;;21.12;55.63;99041.34;10250904;28;940;-68
2023/07/14 18:11:58;;;;;;;;;;;;;;;21.13;55.89;99045.66;10250647;28;1886;-67
2023/07/14 18:16:54;;;;;;;;;;;;;;;21.12;55.87;99041.34;10251410;28;939;-68
2023/07/14 18:21:50;;;;;;;;;;;;;;;21.13;55.51;99039.53;10249785;28;1452;-68
2023/07/14 18:26:46;;;;;;;;;;;;;;;21.14;55.66;99039.44;10250147;28;777;-68
2023/07/14 18:31:41;;;;;;;;;;;;;;;21.14;55.69;99034.13;10250507;28;1906;-68
2023/07/14 18:36:37;;;;;;;;;;;;;;;21.14;55.51;99042.09;10250754;28;921;-67
2023/07/14 18:41:33;;;;;;;;;;;;;;;21.15;55.68;99030.50;10248996;28;819;-68
2023/07/14 18:46:29;;;;;;;;;;;;;;;21.15;55.50;99033.16;10249126;28;778;-68
2023/07/14 18:51:25;;;;;;;;;;;;;;;21.16;55.57;99029.56;10249448;28;869;-68
2023/07/14 18:56:21;;;;;;;;;;;;;;;21.17;55.48;99033.91;10248895;28;1898;-67
2023/07/14 19:01:17;;;;;;;;;;;;;;;21.17;55.41;99036.56;10248278;28;936;-68
2023/07/14 19:06:13;;;;;;;;;;;;;;;21.17;55.44;99041.88;10248643;28;983;-68
2023/07/14 19:11:09;;;;;;;;;;;;;;;21.16;55.40;99029.56;10248529;28;827;-67
2023/07/14 19:16:05;;;;;;;;;;;;;;;21.17;55.47;99036.56;10248293;28;1945;-68
2023/07/14 19:21:02;;;;;;;;;;;;;;;21.18;55.48;99026.81;10248720;28;1147;-68
2023/07/14 19:25:58;;;;;;;;;;;;;;;21.17;55.58;99028.63;10248499;28;787;-68
2023/07/14 19:30:58;;;;;;;;;;;;;;;21.19;55.63;99031.13;10248496;28;822;-68
2023/07/14 19:35:54;;;;;;;;;;;;;;;21.18;55.45;99038.25;10246851;28;1910;-68
2023/07/14 19:40:49;;;;;;;;;;;;;;;21.19;55.47;99033.78;10247988;28;945;-68
2023/07/14 19:45:45;;;;;;;;;;;;;;;21.19;55.50;99029.34;10247112;28;933;-67
2023/07/14 19:50:42;;;;;;;;;;;;;;;21.19;55.47;99026.69;10247566;28;806;-68
2023/07/14 19:55:38;;;;;;;;;;;;;;;21.20;55.59;99027.56;10246559;28;1898;-68
2023/07/14 20:00:34;;;;;;;;;;;;;;;21.20;55.52;99023.09;10247087;28;1038;-68
2023/07/14 20:05:30;;;;;;;;;;;;;;;21.20;55.75;99016.97;10247063;28;790;-67
2023/07/14 20:10:26;;;;;;;;;;;;;;;21.19;55.62;99013.44;10246748;28;803;-68
2023/07/14 20:15:22;;;;;;;;;;;;;;;21.20;55.52;99004.53;10246473;28;1914;-67
2023/07/14 20:20:19;;;;;;;;;;;;;;;21.21;55.59;98997.44;10246358;28;1015;-68
2023/07/14 20:25:17;;;;;;;;;;;;;;;21.20;55.50;98996.59;10245570;28;1071;-68
2023/07/14 20:30:14;;;;;;;;;;;;;;;21.21;55.65;98992.13;10245392;28;862;-68
2023/07/14 20:35:09;;;;;;;;;;;;;;;21.21;55.62;98994.78;10245150;28;1919;-68
2023/07/14 20:40:09;;;;;;;;;;;;;;;21.23;55.77;98990.25;10245724;28;833;-67
2023/07/14 20:45:04;;;;;;;;;;;;;;;21.22;55.53;98985.88;10246003;28;845;-68
2023/07/14 20:50:00;;;;;;;;;;;;;;;21.22;55.75;98986.75;10244759;28;868;-68
2023/07/14 20:54:57;;;;;;;;;;;;;;;21.22;55.65;98976.13;10244598;28;1898;-67
2023/07/14 20:59:53;;;;;;;;;;;;;;;21.23;55.75;98984.94;10245261;28;881;-68
2023/07/14 21:04:49;;;;;;;;;;;;;;;21.23;55.54;98983.13;10243838;28;921;-68
2023/07/14 21:09:44;;;;;;;;;;;;;;;21.24;55.63;98976.84;10244526;28;937;-68
2023/07/14 21:14:41;;;;;;;;;;;;;;;21.24;55.66;98963.59;10243816;28;1901;-66
2023/07/14 21:19:37;;;;;;;;;;;;;;;21.23;55.70;98953.97;10244863;28;875;-66
2023/07/14 21:24:33;;;;;;;;;;;;;;;21.26;55.66;98946.75;10244279;28;1277;-66
2023/07/14 21:29:29;;;;;;;;;;;;;;;21.26;55.72;98946.75;10244030;28;847;-68
2023/07/14 21:34:25;;;;;;;;;;;;;;;21.25;55.65;98940.63;10243753;28;1910;-68
2023/07/14 21:39:21;;;;;;;;;;;;;;;21.26;55.71;98941.47;10244575;28;791;-68
2023/07/14 21:44:17;;;;;;;;;;;;;;;21.27;55.78;98933.38;10242941;28;886;-68
2023/07/14 21:49:13;;;;;;;;;;;;;;;21.27;55.64;98927.25;10244140;28;853;-68
2023/07/14 21:54:08;;;;;;;;;;;;;;;21.27;55.68;98924.59;10244156;28;1961;-68
2023/07/14 21:59:04;;;;;;;;;;;;;;;21.26;55.59;98915.81;10242777;28;925;-67
2023/07/14 22:04:02;;;;;;;;;;;;;;;21.26;55.66;98912.31;10243339;28;945;-67
2023/07/14 22:08:58;;;;;;;;;;;;;;;21.26;55.74;98909.66;10244016;28;818;-67
2023/07/14 22:13:54;;;;;;;;;;;;;;;21.27;55.70;98906.03;10242948;28;1965;-67
2023/07/14 22:18:50;;;;;;;;;;;;;;;21.27;55.51;98895.44;10242982;28;830;-68
2023/07/14 22:23:46;;;;;;;;;;;;;;;21.28;55.59;98905.09;10246640;28;1316;-67
2023/07/14 22:28:42;;;;;;;;;;;;;;;21.27;55.79;98903.38;10250698;28;767;-67
2023/07/14 22:33:37;;;;;;;;;;;;;;;21.28;55.77;98898.00;10249907;28;1906;-68
2023/07/14 22:38:33;;;;;;;;;;;;;;;21.28;55.59;98902.44;10249764;28;967;-67
2023/07/14 22:43:29;;;;;;;;;;;;;;;21.29;55.73;98904.13;10249383;28;1039;-68
2023/07/14 22:48:25;;;;;;;;;;;;;;;21.28;55.80;98899.81;10249363;28;798;-68
2023/07/14 22:53:21;;;;;;;;;;;;;;;21.28;55.55;98894.50;10249211;28;1961;-67
2023/07/14 22:58:17;;;;;;;;;;;;;;;21.28;55.74;98890.03;10249666;28;854;-68
2023/07/14 23:03:13;;;;;;;;;;;;;;;21.29;55.67;98886.41;10249652;28;881;-68
2023/07/14 23:08:08;;;;;;;;;;;;;;;21.28;55.59;98879.44;10248725;28;1035;-68
2023/07/14 23:13:04;;;;;;;;;;;;;;;21.30;55.75;98884.63;10248462;28;1922;-68
2023/07/14 23:18:00;;;;;;;;;;;;;;;21.29;55.56;98873.16;10248319;28;915;-67
2023/07/14 23:22:56;;;;;;;;;;;;;;;21.30;55.66;98876.66;10248388;28;1249;-68
2023/07/14 23:27:52;;;;;;;;;;;;;;;21.30;55.59;98863.41;10247905;28;853;-67
2023/07/14 23:32:48;;;;;;;;;;;;;;;21.29;55.44;98867.03;10247194;28;1906;-68
2023/07/14 23:37:45;;;;;;;;;;;;;;;21.29;55.63;98865.22;10247687;28;775;-67
2023/07/14 23:42:41;;;;;;;;;;;;;;;21.29;55.46;98867.88;10248151;28;904;-68
2023/07/14 23:47:37;;;;;;;;;;;;;;;21.29;55.38;98862.56;10246853;28;964;-68
2023/07/14 23:52:33;;;;;;;;;;;;;;;21.29;55.50;98851.97;10247502;28;1894;-68
2023/07/14 23:57:29;;;;;;;;;;;;;;;21.30;55.54;98847.50;10246909;28;1019;-68
